Time;durP1;ratioP1;P1;durP2;ratioP2;P2;SDS_P1;SDS_P2;PMS_P1;PMS_P2;Temp;Humidity;BMP_temperature;BMP_pressure;BME280_temperature;BME280_humidity;BME280_pressure;Samples;Min_cycle;Max_cycle;Signal;HPM_P1;HPM_P2
2021/07/12 00:01:51;;;;;;;9.23;6.68;;;17.10;99.90;;;;;;5083979;28;20453;-61
2021/07/12 00:04:17;;;;;;;13.18;6.78;;;17.00;99.90;;;;;;5075971;28;20040;-61
2021/07/12 00:06:43;;;;;;;11.35;7.00;;;17.00;99.90;;;;;;5071578;28;20050;-60
2021/07/12 00:09:09;;;;;;;13.13;7.38;;;17.00;99.90;;;;;;5070406;28;20062;-61
2021/07/12 00:11:35;;;;;;;13.65;7.32;;;17.10;99.90;;;;;;5076967;28;20493;-60
2021/07/12 00:14:01;;;;;;;11.73;7.20;;;17.10;99.90;;;;;;5073874;28;20024;-60
2021/07/12 00:16:27;;;;;;;9.60;6.65;;;17.00;99.90;;;;;;5073870;28;20020;-60
2021/07/12 00:18:52;;;;;;;9.90;6.63;;;17.00;99.90;;;;;;5071997;28;20041;-62
2021/07/12 00:21:18;;;;;;;10.32;7.18;;;16.90;99.90;;;;;;5071742;28;20033;-62
2021/07/12 00:23:44;;;;;;;12.57;7.43;;;16.90;99.90;;;;;;5080886;28;20462;-60
2021/07/12 00:26:10;;;;;;;12.82;7.40;;;17.00;99.90;;;;;;5070197;28;20055;-61
2021/07/12 00:28:36;;;;;;;11.10;6.97;;;17.00;99.90;;;;;;5070913;28;20068;-60
2021/07/12 00:31:02;;;;;;;10.90;6.93;;;16.90;99.90;;;;;;5069781;28;20077;-60
2021/07/12 00:33:28;;;;;;;12.45;7.18;;;16.90;99.90;;;;;;5069685;28;20032;-61
2021/07/12 00:35:54;;;;;;;12.88;6.88;;;16.90;99.90;;;;;;5080353;28;20028;-60
2021/07/12 00:38:20;;;;;;;7.45;6.20;;;16.90;99.90;;;;;;5070749;28;20047;-60
2021/07/12 00:40:45;;;;;;;11.32;6.65;;;16.80;99.90;;;;;;5075611;28;20033;-61
2021/07/12 00:43:12;;;;;;;10.68;6.90;;;16.80;99.90;;;;;;5077116;28;20031;-60
2021/07/12 00:45:38;;;;;;;9.88;6.97;;;16.70;99.90;;;;;;5082868;28;20580;-61
2021/07/12 00:48:05;;;;;;;11.25;6.55;;;16.70;99.90;;;;;;5070174;28;20056;-60
2021/07/12 00:50:34;;;;;;;11.95;7.68;;;16.70;99.90;;;;;;5072780;28;20035;-60
2021/07/12 00:53:00;;;;;;;12.25;7.32;;;16.70;99.90;;;;;;5080944;28;20025;-61
2021/07/12 00:55:37;;;;;;;9.43;7.40;;;16.60;99.90;;;;;;5069747;28;20036;-60
2021/07/12 00:58:24;;;;;;;11.70;8.02;;;16.60;99.90;;;;;;5070696;28;20016;-60
2021/07/12 01:00:55;;;;;;;9.30;6.97;;;16.60;99.90;;;;;;5078202;28;20028;-60
2021/07/12 01:03:21;;;;;;;13.30;7.32;;;16.60;99.90;;;;;;5073976;28;20108;-60
2021/07/12 01:05:47;;;;;;;13.73;7.68;;;16.60;99.90;;;;;;5083563;28;20501;-61
2021/07/12 01:08:13;;;;;;;9.02;7.13;;;16.50;99.90;;;;;;5070907;28;20035;-60
2021/07/12 01:10:41;;;;;;;11.25;7.03;;;16.60;99.90;;;;;;5078877;28;20105;-61
2021/07/12 01:13:19;;;;;;;8.77;6.50;;;16.50;99.90;;;;;;5075532;28;20028;-60
2021/07/12 01:16:00;;;;;;;10.13;6.70;;;16.50;99.90;;;;;;5076997;28;20024;-61
2021/07/12 01:18:28;;;;;;;12.70;7.45;;;16.50;99.90;;;;;;5074339;28;20090;-61
2021/07/12 01:21:04;;;;;;;9.80;7.32;;;16.50;99.90;;;;;;5084606;28;20087;-60
2021/07/12 01:23:52;;;;;;;9.95;6.28;;;16.50;99.90;;;;;;5083287;28;20036;-61
2021/07/12 01:26:35;;;;;;;9.18;6.70;;;16.50;99.90;;;;;;5076537;28;20033;-61
2021/07/12 01:29:39;;;;;;;9.50;6.75;;;16.50;99.90;;;;;;5078072;28;20421;-61
2021/07/12 01:32:23;;;;;;;14.18;7.40;;;16.50;99.90;;;;;;5073318;28;20032;-61
2021/07/12 01:35:18;;;;;;;9.85;7.35;;;16.40;99.90;;;;;;5077155;28;20103;-60
2021/07/12 01:38:06;;;;;;;9.63;6.95;;;16.40;99.90;;;;;;5072381;28;20055;-60
2021/07/12 01:40:50;;;;;;;12.65;7.05;;;16.40;99.90;;;;;;5084905;28;20046;-61
2021/07/12 01:43:27;;;;;;;13.13;8.43;;;16.40;99.90;;;;;;5076412;28;20470;-60
2021/07/12 01:46:02;;;;;;;18.15;8.07;;;16.40;99.90;;;;;;5073149;28;20058;-60
2021/07/12 01:48:35;;;;;;;13.63;8.75;;;16.40;99.90;;;;;;5074217;28;20036;-61
2021/07/12 01:51:05;;;;;;;15.50;8.18;;;16.40;99.90;;;;;;5079926;28;20020;-61
2021/07/12 01:53:58;;;;;;;19.33;10.18;;;16.40;99.90;;;;;;5079745;28;20032;-60
2021/07/12 01:56:46;;;;;;;13.48;8.35;;;16.40;99.90;;;;;;5072536;28;20375;-60
2021/07/12 01:59:20;;;;;;;12.23;8.80;;;16.40;99.90;;;;;;5074754;28;20059;-60
2021/07/12 02:01:47;;;;;;;13.80;8.88;;;16.40;99.90;;;;;;5076171;28;20044;-61
2021/07/12 02:04:15;;;;;;;12.32;8.13;;;16.50;99.90;;;;;;5073252;28;20067;-61
2021/07/12 02:06:42;;;;;;;13.77;7.93;;;16.50;99.90;;;;;;5072405;28;20107;-61
2021/07/12 02:09:10;;;;;;;14.23;8.85;;;16.40;99.90;;;;;;5073456;28;20027;-60
2021/07/12 02:11:40;;;;;;;11.88;8.68;;;16.40;99.90;;;;;;5076432;28;20067;-61
2021/07/12 02:14:06;;;;;;;15.02;8.25;;;16.30;99.90;;;;;;5082870;28;20118;-61
2021/07/12 02:16:35;;;;;;;13.00;8.07;;;16.30;99.90;;;;;;5074661;28;20135;-61
2021/07/12 02:19:02;;;;;;;13.77;8.48;;;16.30;99.90;;;;;;5083665;28;20077;-61
2021/07/12 02:21:33;;;;;;;12.30;8.20;;;16.30;99.90;;;;;;5072997;28;20093;-61
2021/07/12 02:24:01;;;;;;;13.00;8.77;;;16.30;99.90;;;;;;5076001;28;20055;-61
2021/07/12 02:26:28;;;;;;;12.95;9.20;;;16.30;99.90;;;;;;5070852;28;20048;-60
2021/07/12 02:28:56;;;;;;;17.98;9.93;;;16.30;99.90;;;;;;5077421;28;20237;-61
2021/07/12 02:31:22;;;;;;;14.38;9.80;;;16.30;99.90;;;;;;5092137;28;20036;-60
2021/07/12 02:33:49;;;;;;;15.50;10.20;;;16.30;99.90;;;;;;5075249;28;20032;-60
2021/07/12 02:36:16;;;;;;;18.17;13.63;;;16.40;99.90;;;;;;5075627;28;20124;-60
2021/07/12 02:38:42;;;;;;;19.20;13.75;;;16.40;99.90;;;;;;5075360;28;20031;-61
2021/07/12 02:41:11;;;;;;;17.42;11.02;;;16.40;99.90;;;;;;5081315;28;20044;-61
2021/07/12 02:43:38;;;;;;;17.25;12.57;;;16.40;99.90;;;;;;5072107;28;20058;-60
2021/07/12 02:46:06;;;;;;;18.10;11.95;;;16.40;99.90;;;;;;5083395;28;20032;-60
2021/07/12 02:48:32;;;;;;;14.05;11.02;;;16.40;99.90;;;;;;5091784;28;20035;-59
2021/07/12 02:51:03;;;;;;;19.75;10.57;;;16.40;99.90;;;;;;5074143;28;20112;-60
2021/07/12 02:53:31;;;;;;;15.40;10.70;;;16.40;99.90;;;;;;5072698;28;20032;-61
2021/07/12 02:55:58;;;;;;;17.63;11.70;;;16.40;99.90;;;;;;5073943;28;20032;-61
2021/07/12 02:58:24;;;;;;;14.57;9.80;;;16.40;99.90;;;;;;5074360;28;20024;-60
2021/07/12 03:00:51;;;;;;;13.45;9.25;;;16.40;99.90;;;;;;5075904;28;20036;-61
2021/07/12 03:03:17;;;;;;;20.00;9.82;;;16.30;99.90;;;;;;5077306;28;20035;-60
2021/07/12 03:05:42;;;;;;;14.05;9.98;;;16.40;99.90;;;;;;5080615;28;20020;-60
2021/07/12 03:08:17;;;;;;;18.38;10.40;;;16.40;99.90;;;;;;5081374;28;20050;-60
2021/07/12 03:10:56;;;;;;;15.50;10.07;;;16.40;99.90;;;;;;5074847;28;20024;-60
2021/07/12 03:13:54;;;;;;;15.23;9.80;;;16.30;99.90;;;;;;5073039;28;20410;-61
2021/07/12 03:16:20;;;;;;;16.77;9.30;;;16.30;99.90;;;;;;5076068;28;20059;-60
2021/07/12 03:18:54;;;;;;;14.68;9.63;;;16.30;99.90;;;;;;5073469;28;20513;-60
2021/07/12 03:21:23;;;;;;;18.50;7.97;;;16.30;99.90;;;;;;5071075;28;20032;-61
2021/07/12 03:23:50;;;;;;;11.27;7.95;;;16.40;99.90;;;;;;5072319;28;20085;-61
2021/07/12 03:26:19;;;;;;;17.00;8.95;;;16.30;99.90;;;;;;5071016;28;20028;-61
2021/07/12 03:28:46;;;;;;;16.48;9.70;;;16.20;99.90;;;;;;5071483;28;20487;-60
2021/07/12 03:31:13;;;;;;;15.25;9.65;;;16.30;99.90;;;;;;5070597;28;20028;-61
2021/07/12 03:33:40;;;;;;;10.65;7.25;;;16.20;99.90;;;;;;5070627;28;20059;-60
2021/07/12 03:36:08;;;;;;;9.02;5.63;;;16.20;99.90;;;;;;5071406;28;20028;-61
2021/07/12 03:38:35;;;;;;;9.02;6.05;;;16.10;99.90;;;;;;5080564;28;20047;-61
2021/07/12 03:41:04;;;;;;;11.57;7.05;;;16.00;99.90;;;;;;5071489;28;20028;-61
2021/07/12 03:43:29;;;;;;;10.93;6.90;;;16.00;99.90;;;;;;5071366;28;20056;-60
2021/07/12 03:45:58;;;;;;;14.45;7.55;;;16.00;99.90;;;;;;5075704;28;20055;-61
2021/07/12 03:48:38;;;;;;;6.70;6.00;;;16.00;99.90;;;;;;5078495;28;20051;-60
2021/07/12 03:51:06;;;;;;;11.70;5.28;;;16.00;99.90;;;;;;5075942;28;20123;-61
2021/07/12 03:53:32;;;;;;;8.90;5.65;;;16.00;99.90;;;;;;5080418;28;20035;-61
2021/07/12 03:55:59;;;;;;;11.13;5.88;;;16.00;99.90;;;;;;5068779;28;20474;-62
2021/07/12 03:58:24;;;;;;;10.63;5.97;;;15.90;99.90;;;;;;5072691;28;20050;-60
2021/07/12 04:00:50;;;;;;;10.15;6.57;;;16.00;99.90;;;;;;5070441;28;20119;-61
2021/07/12 04:03:16;;;;;;;10.25;6.03;;;16.00;99.90;;;;;;5069782;28;20033;-60
2021/07/12 04:05:41;;;;;;;8.30;6.15;;;16.10;99.90;;;;;;5071148;28;20029;-61
2021/07/12 04:08:07;;;;;;;8.95;6.50;;;16.00;99.90;;;;;;5074067;28;20065;-60
2021/07/12 04:10:33;;;;;;;10.57;7.10;;;16.00;99.90;;;;;;5070587;28;20037;-60
2021/07/12 04:12:59;;;;;;;11.20;7.30;;;16.00;99.90;;;;;;5075765;28;20029;-61
2021/07/12 04:15:24;;;;;;;11.93;7.55;;;16.00;99.90;;;;;;5080763;28;20477;-61
2021/07/12 04:17:50;;;;;;;9.55;7.13;;;16.00;99.90;;;;;;5073292;28;20020;-60
2021/07/12 04:20:16;;;;;;;12.05;7.63;;;15.90;99.90;;;;;;5076820;28;20047;-61
2021/07/12 04:22:43;;;;;;;11.60;7.82;;;15.90;99.90;;;;;;5080868;28;20564;-61
2021/07/12 04:25:10;;;;;;;11.55;8.07;;;16.00;99.90;;;;;;5069386;28;20398;-60
2021/07/12 04:27:36;;;;;;;17.23;9.07;;;16.00;99.90;;;;;;5069751;28;20457;-60
2021/07/12 04:30:04;;;;;;;12.60;9.02;;;16.00;99.90;;;;;;5070637;28;20072;-61
2021/07/12 04:32:30;;;;;;;16.48;11.50;;;16.00;99.90;;;;;;5075055;28;20506;-61
2021/07/12 04:34:56;;;;;;;17.83;12.00;;;16.10;99.90;;;;;;5078883;28;20077;-60
2021/07/12 04:37:22;;;;;;;22.02;12.02;;;16.10;99.90;;;;;;5069868;28;20039;-60
2021/07/12 04:39:47;;;;;;;20.00;13.45;;;16.10;99.90;;;;;;5083042;28;20497;-61
2021/07/12 04:42:13;;;;;;;21.13;12.48;;;16.10;99.90;;;;;;5069968;28;20044;-60
2021/07/12 04:44:39;;;;;;;22.08;13.70;;;16.10;99.90;;;;;;5074665;28;20039;-60
2021/07/12 04:47:05;;;;;;;21.63;13.52;;;16.10;99.90;;;;;;5083121;28;20067;-61
2021/07/12 04:49:30;;;;;;;21.25;13.73;;;16.10;99.90;;;;;;5077852;28;20029;-61
2021/07/12 04:51:56;;;;;;;25.52;13.85;;;16.10;99.90;;;;;;5084064;28;20024;-61
2021/07/12 04:54:23;;;;;;;18.20;12.85;;;16.20;99.90;;;;;;5081161;28;20078;-60
2021/07/12 04:56:48;;;;;;;23.50;13.73;;;16.20;99.90;;;;;;5083040;28;20032;-61
2021/07/12 04:59:16;;;;;;;21.23;13.32;;;16.20;99.90;;;;;;5078202;28;20551;-60
2021/07/12 05:01:42;;;;;;;18.60;13.23;;;16.10;99.90;;;;;;5084054;28;20071;-60
2021/07/12 05:04:08;;;;;;;21.95;13.05;;;16.00;99.90;;;;;;5083762;28;20478;-60
2021/07/12 05:06:34;;;;;;;23.80;14.45;;;16.00;99.90;;;;;;5072918;28;20041;-60
2021/07/12 05:09:00;;;;;;;20.98;13.70;;;16.10;99.90;;;;;;5075378;28;20446;-60
2021/07/12 05:11:28;;;;;;;17.45;13.02;;;16.20;99.90;;;;;;5072774;28;20082;-61
2021/07/12 05:13:55;;;;;;;22.38;13.65;;;16.20;99.90;;;;;;5084810;28;20390;-60
2021/07/12 05:16:20;;;;;;;21.73;14.20;;;16.20;99.90;;;;;;5072690;28;20035;-60
2021/07/12 05:18:47;;;;;;;20.63;13.85;;;16.20;99.90;;;;;;5078829;28;20115;-60
2021/07/12 05:21:13;;;;;;;23.08;12.75;;;16.10;99.90;;;;;;5072441;28;20041;-60
2021/07/12 05:23:39;;;;;;;20.40;13.70;;;16.20;99.90;;;;;;5078407;28;20028;-61
2021/07/12 05:26:05;;;;;;;22.77;13.13;;;16.20;99.90;;;;;;5076301;28;20086;-60
2021/07/12 05:28:31;;;;;;;21.90;13.02;;;16.20;99.90;;;;;;5080152;28;20044;-60
2021/07/12 05:30:57;;;;;;;17.85;12.68;;;16.20;99.90;;;;;;5073550;28;20032;-60
2021/07/12 05:33:23;;;;;;;24.35;16.45;;;16.20;99.90;;;;;;5076525;28;20028;-62
2021/07/12 05:35:49;;;;;;;20.52;13.27;;;16.20;99.90;;;;;;5073806;28;20041;-60
2021/07/12 05:38:15;;;;;;;19.08;13.50;;;16.10;99.90;;;;;;5075686;28;20028;-60
2021/07/12 05:40:40;;;;;;;20.23;13.57;;;16.20;99.90;;;;;;5083122;28;20044;-60
2021/07/12 05:43:08;;;;;;;23.30;13.02;;;16.20;99.90;;;;;;5072969;28;20044;-62
2021/07/12 05:45:34;;;;;;;21.42;13.43;;;16.20;99.90;;;;;;5079149;28;20028;-60
2021/07/12 05:48:00;;;;;;;24.08;14.27;;;16.20;99.90;;;;;;5077463;28;20025;-61
2021/07/12 05:50:26;;;;;;;24.40;15.10;;;16.30;99.90;;;;;;5073172;28;20398;-61
2021/07/12 05:52:51;;;;;;;21.90;14.05;;;16.30;99.90;;;;;;5078166;28;20036;-60
2021/07/12 05:55:17;;;;;;;24.60;14.68;;;16.30;99.90;;;;;;5076683;28;20032;-60
2021/07/12 05:57:43;;;;;;;23.98;13.50;;;16.40;99.90;;;;;;5072031;28;20037;-61
2021/07/12 06:00:10;;;;;;;22.02;15.15;;;16.40;99.90;;;;;;5081505;28;20033;-61
2021/07/12 06:02:36;;;;;;;34.65;14.95;;;16.40;99.90;;;;;;5074303;28;20032;-60
2021/07/12 06:05:03;;;;;;;23.13;14.95;;;16.30;99.90;;;;;;5080004;28;20497;-61
2021/07/12 06:07:29;;;;;;;24.85;15.05;;;16.30;99.90;;;;;;5085458;28;20024;-61
2021/07/12 06:09:54;;;;;;;24.85;14.55;;;16.40;99.90;;;;;;5073031;28;20039;-60
2021/07/12 06:12:20;;;;;;;18.92;13.57;;;16.30;99.90;;;;;;5076447;28;20028;-60
2021/07/12 06:14:46;;;;;;;20.77;14.02;;;16.30;99.90;;;;;;5085130;28;20024;-60
2021/07/12 06:17:11;;;;;;;19.90;14.45;;;16.30;99.90;;;;;;5088072;28;20032;-61
2021/07/12 06:19:37;;;;;;;20.38;14.40;;;16.40;99.90;;;;;;5072633;28;20070;-61
2021/07/12 06:22:04;;;;;;;20.30;14.35;;;16.40;99.90;;;;;;5072090;28;20426;-60
2021/07/12 06:24:30;;;;;;;23.73;14.18;;;16.40;99.90;;;;;;5077107;28;20475;-60
2021/07/12 06:26:56;;;;;;;23.88;13.68;;;16.50;99.90;;;;;;5079446;28;20032;-61
2021/07/12 06:29:22;;;;;;;23.23;13.07;;;16.50;99.90;;;;;;5089711;28;20113;-59
2021/07/12 06:31:49;;;;;;;19.73;13.50;;;16.60;99.90;;;;;;5071948;28;20032;-61
2021/07/12 06:34:14;;;;;;;22.77;13.77;;;16.50;99.90;;;;;;5078162;28;20090;-61
2021/07/12 06:36:40;;;;;;;21.23;13.73;;;16.50;99.90;;;;;;5085167;28;20032;-60
2021/07/12 06:39:06;;;;;;;20.48;13.93;;;16.60;99.90;;;;;;5076808;28;20032;-60
2021/07/12 06:41:33;;;;;;;21.80;13.27;;;16.60;99.90;;;;;;5081954;28;20184;-60
2021/07/12 06:43:59;;;;;;;23.83;13.82;;;16.60;99.90;;;;;;5079521;28;20367;-60
2021/07/12 06:46:24;;;;;;;26.80;15.80;;;16.60;99.90;;;;;;5083745;28;20119;-60
2021/07/12 06:48:50;;;;;;;22.85;14.10;;;16.70;99.90;;;;;;5080009;28;20405;-60
2021/07/12 06:51:16;;;;;;;21.17;13.88;;;16.60;99.90;;;;;;5078642;28;20032;-60
2021/07/12 06:53:42;;;;;;;20.83;14.13;;;16.70;99.90;;;;;;5086428;28;20056;-60
2021/07/12 06:56:08;;;;;;;22.98;14.13;;;16.70;99.90;;;;;;5080984;28;20539;-61
2021/07/12 06:58:34;;;;;;;20.63;13.88;;;16.70;99.90;;;;;;5079977;28;20731;-60
2021/07/12 07:00:59;;;;;;;19.60;13.63;;;16.70;99.90;;;;;;5078750;28;20052;-61
2021/07/12 07:03:25;;;;;;;23.58;13.18;;;16.70;99.90;;;;;;5074760;28;20419;-60
2021/07/12 07:05:51;;;;;;;17.02;12.57;;;16.70;99.90;;;;;;5075423;28;20031;-61
2021/07/12 07:08:18;;;;;;;19.83;13.77;;;16.80;99.90;;;;;;5073499;28;20021;-60
2021/07/12 07:10:43;;;;;;;18.67;12.82;;;16.70;99.90;;;;;;5073596;28;20024;-60
2021/07/12 07:13:09;;;;;;;16.17;11.50;;;16.90;99.90;;;;;;5072420;28;20032;-60
2021/07/12 07:19:10;;;;;;;16.83;11.82;;;16.80;99.90;;;;;;5073544;28;20501;-60
2021/07/12 07:21:36;;;;;;;19.25;12.45;;;16.90;99.90;;;;;;5072969;28;20527;-60
2021/07/12 07:27:32;;;;;;;18.17;12.27;;;17.00;99.90;;;;;;5073152;28;20024;-60
2021/07/12 07:29:58;;;;;;;17.75;12.20;;;17.10;99.90;;;;;;5072749;28;20048;-60
2021/07/12 07:32:24;;;;;;;14.38;10.77;;;17.10;99.90;;;;;;5073204;28;20124;-60
2021/07/12 07:38:30;;;;;;;19.60;10.68;;;17.00;99.90;;;;;;5073005;28;20059;-60
2021/07/12 07:40:56;;;;;;;17.08;10.63;;;17.10;99.90;;;;;;5072636;28;20041;-59
2021/07/12 07:43:21;;;;;;;16.27;11.98;;;17.10;99.90;;;;;;5076037;28;20027;-61
2021/07/12 07:45:47;;;;;;;16.92;10.95;;;17.20;99.90;;;;;;5079523;28;20020;-61
2021/07/12 07:48:13;;;;;;;16.13;11.00;;;17.20;99.90;;;;;;5073950;28;20215;-60
2021/07/12 07:50:40;;;;;;;19.50;10.25;;;17.10;99.90;;;;;;5072324;28;20036;-61
2021/07/12 07:53:07;;;;;;;15.57;10.10;;;17.10;99.90;;;;;;5075538;28;20024;-61
2021/07/12 07:55:33;;;;;;;18.40;10.73;;;17.10;99.90;;;;;;5084103;28;20133;-61
2021/07/12 07:57:59;;;;;;;16.88;9.70;;;17.20;99.90;;;;;;5072228;28;20024;-61
2021/07/12 08:00:25;;;;;;;16.85;9.82;;;17.20;99.90;;;;;;5084790;28;20024;-61
2021/07/12 08:02:52;;;;;;;11.75;8.52;;;17.10;99.90;;;;;;5077894;28;20117;-61
2021/07/12 08:05:21;;;;;;;12.10;8.38;;;17.10;99.90;;;;;;5083776;28;20036;-60
2021/07/12 08:07:47;;;;;;;12.23;7.88;;;17.20;99.90;;;;;;5083542;28;20478;-61
2021/07/12 08:10:15;;;;;;;9.80;6.15;;;17.10;99.90;;;;;;5082509;28;20525;-61
2021/07/12 08:12:42;;;;;;;14.05;6.03;;;17.10;99.90;;;;;;5078605;28;20394;-60
2021/07/12 08:15:10;;;;;;;9.63;5.65;;;17.10;99.90;;;;;;5080895;28;20138;-61
2021/07/12 08:17:40;;;;;;;11.13;5.38;;;17.10;99.90;;;;;;5071304;28;20055;-60
2021/07/12 08:20:10;;;;;;;8.10;5.15;;;17.10;99.90;;;;;;5075794;28;20029;-61
2021/07/12 08:22:36;;;;;;;11.85;5.30;;;17.10;99.90;;;;;;5070908;28;20123;-60
2021/07/12 08:25:04;;;;;;;9.02;5.53;;;17.20;99.90;;;;;;5080763;28;20486;-61
2021/07/12 08:27:31;;;;;;;12.18;5.45;;;17.20;99.90;;;;;;5074662;28;20024;-61
2021/07/12 08:29:57;;;;;;;8.88;5.00;;;17.30;99.90;;;;;;5080806;28;20044;-61
2021/07/12 08:32:23;;;;;;;7.90;5.32;;;17.20;99.90;;;;;;5076111;28;20406;-61
2021/07/12 08:34:49;;;;;;;9.10;5.05;;;17.20;99.90;;;;;;5074925;28;20021;-60
2021/07/12 08:37:14;;;;;;;12.07;5.78;;;17.20;99.90;;;;;;5078344;28;20059;-60
2021/07/12 08:39:40;;;;;;;8.48;5.38;;;17.30;99.90;;;;;;5077877;28;20025;-60
2021/07/12 08:42:09;;;;;;;11.15;5.63;;;17.20;99.90;;;;;;5080953;28;20059;-60
2021/07/12 08:44:35;;;;;;;13.80;4.97;;;17.20;99.90;;;;;;5080103;28;20020;-60
2021/07/12 08:47:01;;;;;;;12.75;5.20;;;17.30;99.90;;;;;;5085221;28;20427;-60
2021/07/12 08:49:27;;;;;;;9.88;5.30;;;17.40;99.90;;;;;;5086054;28;20544;-60
2021/07/12 08:51:53;;;;;;;15.48;3.88;;;17.50;99.90;;;;;;5087194;28;20094;-60
2021/07/12 08:54:19;;;;;;;13.18;5.03;;;17.40;99.90;;;;;;5073326;28;20036;-60
2021/07/12 08:56:45;;;;;;;8.20;3.22;;;17.40;99.90;;;;;;5076231;28;20041;-61
2021/07/12 08:59:25;;;;;;;10.07;2.58;;;17.60;99.90;;;;;;5078738;28;20486;-60
2021/07/12 09:02:00;;;;;;;17.05;3.28;;;17.70;99.90;;;;;;5093548;28;20039;-61
2021/07/12 09:04:27;;;;;;;8.75;2.05;;;17.70;99.90;;;;;;5080413;28;20032;-60
2021/07/12 09:07:09;;;;;;;17.20;2.63;;;17.80;99.90;;;;;;5076922;28;20115;-60
2021/07/12 09:09:36;;;;;;;14.05;2.83;;;18.00;99.90;;;;;;5074540;28;20021;-61
2021/07/12 09:12:14;;;;;;;14.80;2.25;;;18.20;99.90;;;;;;5074119;28;20079;-60
2021/07/12 09:14:42;;;;;;;4.82;2.25;;;18.30;99.90;;;;;;5076292;28;20058;-60
2021/07/12 09:17:10;;;;;;;3.95;1.80;;;18.40;99.90;;;;;;5087518;28;20111;-61
2021/07/12 09:19:37;;;;;;;19.13;2.90;;;18.40;99.90;;;;;;5076587;28;20025;-62
2021/07/12 09:22:13;;;;;;;9.65;2.20;;;18.50;99.90;;;;;;5074108;28;20041;-60
2021/07/12 09:24:56;;;;;;;3.50;1.70;;;18.70;99.90;;;;;;5085665;28;20025;-60
2021/07/12 09:27:32;;;;;;;4.75;1.90;;;18.80;99.90;;;;;;5074400;28;20051;-60
2021/07/12 09:30:05;;;;;;;6.38;2.13;;;19.00;99.90;;;;;;5086475;28;20056;-61
2021/07/12 09:32:34;;;;;;;4.22;1.80;;;18.90;99.90;;;;;;5073879;28;20490;-60
2021/07/12 09:35:05;;;;;;;4.38;1.90;;;19.00;99.90;;;;;;5077668;28;20025;-61
2021/07/12 09:37:31;;;;;;;14.40;3.00;;;19.20;99.90;;;;;;5074163;28;20024;-61
2021/07/12 09:39:58;;;;;;;1.77;1.40;;;19.30;99.90;;;;;;5071778;28;20037;-62
2021/07/12 09:42:31;;;;;;;3.28;1.83;;;19.30;99.90;;;;;;5078727;28;20044;-59
2021/07/12 09:45:03;;;;;;;3.17;1.55;;;19.50;99.90;;;;;;5080483;28;20029;-62
2021/07/12 09:47:31;;;;;;;4.63;1.77;;;19.50;99.90;;;;;;5085745;28;20157;-59
2021/07/12 09:50:13;;;;;;;4.82;1.80;;;19.40;99.90;;;;;;5078663;28;20024;-61
2021/07/12 09:52:50;;;;;;;4.85;1.83;;;19.50;99.90;;;;;;5078448;28;20036;-60
2021/07/12 09:55:25;;;;;;;9.18;2.08;;;19.50;99.90;;;;;;5082394;28;20036;-60
2021/07/12 09:58:07;;;;;;;;;;;19.70;99.90;;;;;;5073316;28;20039;-60
2021/07/12 10:00:33;;;;;;;5.53;2.05;;;19.80;99.90;;;;;;5072286;28;19909;-60
2021/07/12 10:02:59;;;;;;;8.95;2.30;;;20.10;99.90;;;;;;5084156;28;20051;-61
2021/07/12 10:05:25;;;;;;;3.08;1.60;;;20.50;99.90;;;;;;5074140;28;20104;-60
2021/07/12 10:07:51;;;;;;;5.15;1.60;;;20.40;99.90;;;;;;5072899;28;20060;-61
2021/07/12 10:10:17;;;;;;;4.10;2.00;;;20.40;99.90;;;;;;5074661;28;20036;-60
2021/07/12 10:12:44;;;;;;;4.47;2.42;;;20.80;99.90;;;;;;5072654;28;20391;-61
2021/07/12 10:15:15;;;;;;;7.45;1.80;;;20.80;99.90;;;;;;5072256;28;20021;-61
2021/07/12 10:17:45;;;;;;;1.52;1.40;;;20.90;99.90;;;;;;5087580;28;20391;-60
2021/07/12 10:20:13;;;;;;;2.65;1.73;;;21.10;99.90;;;;;;5085187;28;20051;-60
2021/07/12 10:22:40;;;;;;;4.38;2.22;;;21.20;99.90;;;;;;5076077;28;20036;-60
2021/07/12 10:25:07;;;;;;;4.72;2.40;;;21.20;99.90;;;;;;5071797;28;20029;-60
2021/07/12 10:27:54;;;;;;;6.55;2.45;;;21.20;99.90;;;;;;5072813;28;20024;-61
2021/07/12 10:30:26;;;;;;;3.85;2.53;;;21.30;99.90;;;;;;5070848;28;20052;-60
2021/07/12 10:33:03;;;;;;;3.53;2.78;;;21.30;99.90;;;;;;5075196;28;20033;-61
2021/07/12 10:35:46;;;;;;;10.30;5.68;;;21.20;99.90;;;;;;5082067;28;20372;-62
2021/07/12 10:38:17;;;;;;;5.55;3.38;;;21.10;99.90;;;;;;5071693;28;20033;-60
2021/07/12 10:40:46;;;;;;;5.22;2.97;;;21.20;99.90;;;;;;5072432;28;20106;-60
2021/07/12 10:43:12;;;;;;;6.88;3.35;;;21.20;99.90;;;;;;5071727;28;20032;-62
2021/07/12 10:45:41;;;;;;;6.10;2.85;;;21.30;99.90;;;;;;5071384;28;20097;-61
2021/07/12 10:48:12;;;;;;;3.78;2.78;;;21.40;99.90;;;;;;5072604;28;20038;-60
2021/07/12 10:50:46;;;;;;;9.38;2.67;;;21.30;99.90;;;;;;5079740;28;20028;-61
2021/07/12 10:53:15;;;;;;;4.85;2.50;;;21.30;99.90;;;;;;5078184;28;20044;-61
2021/07/12 10:55:46;;;;;;;9.45;2.65;;;21.30;99.90;;;;;;5076462;28;20032;-60
2021/07/12 10:58:26;;;;;;;4.18;2.45;;;21.50;99.90;;;;;;5074863;28;20086;-62
2021/07/12 11:00:55;;;;;;;5.15;2.60;;;21.50;99.90;;;;;;5081260;28;20043;-61
2021/07/12 11:03:39;;;;;;;5.97;2.90;;;21.50;99.90;;;;;;5073660;28;20498;-60
2021/07/12 11:06:10;;;;;;;4.13;3.03;;;21.50;99.90;;;;;;5070902;28;20111;-60
2021/07/12 11:08:55;;;;;;;6.50;2.58;;;21.50;99.90;;;;;;5069983;28;20297;-61
2021/07/12 11:11:24;;;;;;;7.03;3.08;;;21.40;99.90;;;;;;5071823;28;20033;-59
2021/07/12 11:13:57;;;;;;;11.82;3.38;;;21.20;99.90;;;;;;5069997;28;20386;-61
2021/07/12 11:16:26;;;;;;;5.63;2.85;;;21.00;99.90;;;;;;5072115;28;20024;-60
2021/07/12 11:18:53;;;;;;;6.75;3.53;;;20.90;99.90;;;;;;5070903;28;20040;-60
2021/07/12 11:21:31;;;;;;;5.15;3.05;;;20.90;99.90;;;;;;5072589;28;20086;-60
2021/07/12 11:24:07;;;;;;;4.55;2.92;;;20.90;99.90;;;;;;5070710;28;20440;-61
2021/07/12 11:26:33;;;;;;;6.95;3.10;;;20.90;99.90;;;;;;5071156;28;20032;-61
2021/07/12 11:29:21;;;;;;;10.45;3.60;;;21.00;99.90;;;;;;5070307;28;20044;-61
2021/07/12 11:31:50;;;;;;;5.05;3.72;;;20.90;99.90;;;;;;5071780;28;20024;-61
2021/07/12 11:34:27;;;;;;;5.28;3.13;;;20.90;99.90;;;;;;5070559;28;20043;-61
2021/07/12 11:37:04;;;;;;;8.35;4.10;;;21.00;99.90;;;;;;5071486;28;20017;-59
2021/07/12 11:39:32;;;;;;;14.10;3.65;;;21.00;99.90;;;;;;5084753;28;20390;-60
2021/07/12 11:42:09;;;;;;;13.70;4.20;;;21.00;99.90;;;;;;5070910;28;20032;-60
2021/07/12 11:44:35;;;;;;;11.70;3.80;;;21.00;99.90;;;;;;5071149;28;20024;-61
2021/07/12 11:47:23;;;;;;;6.45;3.72;;;21.00;99.90;;;;;;5071405;28;20149;-61
2021/07/12 11:49:52;;;;;;;5.97;3.70;;;21.00;99.90;;;;;;5084563;28;20540;-60
2021/07/12 11:52:18;;;;;;;4.47;3.25;;;21.00;99.90;;;;;;5070932;28;20031;-62
2021/07/12 11:54:45;;;;;;;5.88;3.50;;;21.10;99.90;;;;;;5070687;28;20106;-60
2021/07/12 11:57:14;;;;;;;10.38;3.45;;;21.10;99.90;;;;;;5071133;28;20036;-60
2021/07/12 11:59:41;;;;;;;6.13;3.47;;;21.00;99.90;;;;;;5069404;28;20472;-60
2021/07/12 12:02:12;;;;;;;7.47;4.00;;;20.90;99.90;;;;;;5070845;28;20036;-60
2021/07/12 12:04:55;;;;;;;10.73;4.78;;;20.80;99.90;;;;;;5078250;28;20032;-60
2021/07/12 12:07:48;;;;;;;6.60;4.45;;;20.70;99.90;;;;;;5074572;28;20050;-60
2021/07/12 12:10:26;;;;;;;6.18;4.03;;;20.80;99.90;;;;;;5070301;28;20028;-61
2021/07/12 12:13:18;;;;;;;8.18;4.13;;;20.80;99.90;;;;;;5071114;28;20056;-61
2021/07/12 12:15:47;;;;;;;14.73;4.85;;;20.70;99.90;;;;;;5069641;28;20115;-60
2021/07/12 12:18:18;;;;;;;10.20;4.97;;;20.80;99.90;;;;;;5079110;28;20039;-60
2021/07/12 12:20:52;;;;;;;5.55;3.95;;;20.80;99.90;;;;;;5076131;28;20093;-61
2021/07/12 12:23:23;;;;;;;5.63;3.87;;;20.50;99.90;;;;;;5083427;28;20032;-61
2021/07/12 12:25:56;;;;;;;7.90;4.53;;;20.60;99.90;;;;;;5069921;28;20032;-60
2021/07/12 12:28:31;;;;;;;8.38;4.15;;;20.60;99.90;;;;;;5070690;28;20040;-61
2021/07/12 12:31:16;;;;;;;;;;;20.70;99.90;;;;;;5070276;28;20032;-61
2021/07/12 12:33:44;;;;;;;9.88;4.57;;;20.90;99.90;;;;;;5070995;28;19908;-60
2021/07/12 12:36:18;;;;;;;7.28;3.72;;;21.10;99.90;;;;;;5069966;28;20095;-61
2021/07/12 12:39:10;;;;;;;8.70;4.15;;;21.00;99.90;;;;;;5070757;28;20047;-60
2021/07/12 12:41:52;;;;;;;5.38;3.78;;;21.10;99.90;;;;;;5066512;28;20057;-61
2021/07/12 12:44:22;;;;;;;5.78;4.30;;;21.20;99.90;;;;;;5070013;28;20028;-60
2021/07/12 12:46:51;;;;;;;6.10;3.75;;;21.20;99.90;;;;;;5075988;28;20074;-61
2021/07/12 12:49:21;;;;;;;7.88;4.18;;;21.40;99.90;;;;;;5078416;28;20111;-61
2021/07/12 12:51:54;;;;;;;5.63;3.50;;;21.40;99.90;;;;;;5082666;28;20028;-61
2021/07/12 12:54:31;;;;;;;5.95;4.00;;;21.40;99.90;;;;;;5069990;28;20024;-61
2021/07/12 12:56:58;;;;;;;6.90;3.90;;;21.40;99.90;;;;;;5070294;28;20023;-60
2021/07/12 12:59:37;;;;;;;4.90;4.10;;;21.50;99.90;;;;;;5069356;28;20044;-59
2021/07/12 13:02:09;;;;;;;6.68;4.10;;;21.40;99.90;;;;;;5070435;28;20110;-60